Time;durP1;ratioP1;P1;durP2;ratioP2;P2;SDS_P1;SDS_P2;PMS_P1;PMS_P2;Temp;Humidity;BMP_temperature;BMP_pressure;BME280_temperature;BME280_humidity;BME280_pressure;Samples;Min_cycle;Max_cycle;Signal;HPM_P1;HPM_P2
2022/08/09 00:00:08;;;;;;;1999.90;999.90;;;15.30;99.90;;;;;;4939064;28;20469;-84
2022/08/09 00:02:39;;;;;;;1999.90;999.90;;;15.30;99.90;;;;;;4940607;28;20755;-85
2022/08/09 00:05:15;;;;;;;1999.90;999.90;;;15.30;99.90;;;;;;4942295;29;20481;-85
2022/08/09 00:08:05;;;;;;;1999.90;999.90;;;15.30;99.90;;;;;;4936526;29;20463;-84
2022/08/09 00:10:40;;;;;;;1999.90;999.90;;;15.30;99.90;;;;;;4930205;29;20395;-85
2022/08/09 00:13:08;;;;;;;1999.90;999.90;;;15.30;99.90;;;;;;4925188;29;20502;-84
2022/08/09 00:15:47;;;;;;;1999.90;999.90;;;15.30;99.90;;;;;;4927283;28;20414;-84
2022/08/09 00:18:26;;;;;;;1999.90;999.90;;;15.30;99.90;;;;;;4923326;29;20414;-82
2022/08/09 00:20:55;;;;;;;1999.90;999.90;;;15.30;99.90;;;;;;4920833;29;20423;-84
2022/08/09 00:23:24;;;;;;;1999.90;999.90;;;15.30;99.90;;;;;;4924251;29;20409;-84
2022/08/09 00:26:11;;;;;;;1999.90;999.90;;;15.30;99.90;;;;;;4923662;29;20407;-84
2022/08/09 00:28:41;;;;;;;1999.90;999.90;;;15.30;99.90;;;;;;4930537;29;20455;-84
2022/08/09 00:31:23;;;;;;;1999.90;999.90;;;15.30;99.90;;;;;;4931780;29;20492;-84
2022/08/09 00:34:11;;;;;;;1999.90;999.90;;;15.30;99.90;;;;;;4927101;29;20894;-85
2022/08/09 00:36:38;;;;;;;1999.90;999.90;;;15.30;99.90;;;;;;4939966;29;20411;-84
2022/08/09 00:39:09;;;;;;;1999.90;999.90;;;15.30;99.90;;;;;;4940577;29;20459;-84
2022/08/09 00:41:56;;;;;;;1999.90;999.90;;;15.30;99.90;;;;;;4936620;28;20409;-84
2022/08/09 00:44:44;;;;;;;1999.90;999.90;;;15.30;99.90;;;;;;4923727;29;20878;-84
2022/08/09 00:47:14;;;;;;;1999.90;999.90;;;15.30;99.90;;;;;;4924406;29;20421;-85
2022/08/09 00:49:42;;;;;;;1999.90;999.90;;;15.20;99.90;;;;;;4929644;29;20411;-85
2022/08/09 00:52:23;;;;;;;1999.90;999.90;;;15.20;99.90;;;;;;4925754;29;20447;-84
2022/08/09 00:55:01;;;;;;;1999.90;999.90;;;15.20;99.90;;;;;;4923389;29;20398;-85
2022/08/09 00:57:29;;;;;;;1999.90;999.90;;;15.20;99.90;;;;;;4931157;29;20928;-84
2022/08/09 01:00:09;;;;;;;1999.90;999.90;;;15.20;99.90;;;;;;4923587;29;20510;-84
2022/08/09 01:03:11;;;;;;;1999.90;999.90;;;15.20;99.90;;;;;;4934787;28;20888;-85
2022/08/09 01:06:11;;;;;;;1999.90;999.90;;;15.20;99.90;;;;;;4897937;29;20415;-85
2022/08/09 01:09:08;;;;;;;1999.90;999.90;;;15.20;99.90;;;;;;4924900;29;20411;-85
2022/08/09 01:11:57;;;;;;;1999.90;999.90;;;15.20;99.90;;;;;;4921846;29;20893;-84
2022/08/09 01:14:42;;;;;;;1999.90;999.90;;;15.20;99.90;;;;;;4921894;29;20470;-84
2022/08/09 01:17:51;;;;;;;1999.90;999.90;;;15.20;99.90;;;;;;4937275;28;20502;-84
2022/08/09 01:20:51;;;;;;;1999.90;999.90;;;15.20;99.90;;;;;;4928862;29;20449;-85
2022/08/09 01:23:56;;;;;;;1999.90;999.90;;;15.10;99.90;;;;;;4927203;29;20402;-84
2022/08/09 01:26:52;;;;;;;1999.90;999.90;;;15.10;99.90;;;;;;4938047;29;20801;-85
2022/08/09 01:29:41;;;;;;;1999.90;999.90;;;15.20;99.90;;;;;;4921086;29;20920;-84
2022/08/09 01:32:28;;;;;;;1999.90;999.90;;;15.10;99.90;;;;;;4935005;28;20409;-85
2022/08/09 01:35:07;;;;;;;1999.90;999.90;;;15.10;99.90;;;;;;4927727;29;20413;-84
2022/08/09 01:37:58;;;;;;;1999.90;999.90;;;15.10;99.90;;;;;;4927518;29;20494;-85
2022/08/09 01:40:42;;;;;;;1999.90;999.90;;;15.10;99.90;;;;;;4936355;29;20497;-84
2022/08/09 01:43:12;;;;;;;1999.90;999.90;;;15.10;99.90;;;;;;4927496;29;20405;-85
2022/08/09 01:45:42;;;;;;;1999.90;999.90;;;15.10;99.90;;;;;;4926459;29;20413;-85
2022/08/09 01:48:16;;;;;;;1999.90;999.90;;;15.10;99.90;;;;;;4928702;29;20532;-85
2022/08/09 01:50:48;;;;;;;1999.90;999.90;;;15.10;99.90;;;;;;4931701;29;20398;-84
2022/08/09 01:53:22;;;;;;;1999.90;999.90;;;15.10;99.90;;;;;;4931435;29;20409;-84
2022/08/09 01:56:09;;;;;;;1999.90;999.90;;;15.10;99.90;;;;;;4928294;29;20845;-85
2022/08/09 01:58:39;;;;;;;1999.90;999.90;;;15.10;99.90;;;;;;4921123;29;20410;-85
2022/08/09 02:01:08;;;;;;;1999.90;999.90;;;15.10;99.90;;;;;;4926814;29;20402;-84
2022/08/09 02:03:45;;;;;;;1999.90;999.90;;;15.10;99.90;;;;;;4939395;28;20504;-84
2022/08/09 02:06:15;;;;;;;1999.90;999.90;;;15.10;99.90;;;;;;4940506;28;20412;-85
2022/08/09 02:08:45;;;;;;;1999.90;999.90;;;15.10;99.90;;;;;;4934038;29;20464;-85
2022/08/09 02:11:29;;;;;;;1999.90;999.90;;;15.00;99.90;;;;;;4925186;29;20909;-84
2022/08/09 02:14:11;;;;;;;1999.90;999.90;;;15.00;99.90;;;;;;4943446;28;20461;-85
2022/08/09 02:16:54;;;;;;;1999.90;999.90;;;15.00;99.90;;;;;;4928623;29;20445;-84
2022/08/09 02:19:42;;;;;;;1999.90;999.90;;;15.00;99.90;;;;;;4933387;29;20760;-85
2022/08/09 02:22:29;;;;;;;1999.90;999.90;;;15.00;99.90;;;;;;4933526;29;20410;-84
2022/08/09 02:25:06;;;;;;;1999.90;999.90;;;15.00;99.90;;;;;;4934951;28;20581;-85
2022/08/09 02:27:37;;;;;;;1999.90;999.90;;;15.00;99.90;;;;;;4928812;29;20441;-84
2022/08/09 02:30:30;;;;;;;1999.90;999.90;;;15.00;99.90;;;;;;4926315;29;20817;-85
2022/08/09 02:32:59;;;;;;;1999.90;999.90;;;15.00;99.90;;;;;;4927736;29;20410;-85
2022/08/09 02:35:30;;;;;;;1999.90;999.90;;;14.90;99.90;;;;;;4935146;29;20800;-85
2022/08/09 02:38:24;;;;;;;1999.90;999.90;;;14.90;99.90;;;;;;4940714;28;20413;-84
2022/08/09 02:41:01;;;;;;;1999.90;999.90;;;14.90;99.90;;;;;;4940541;28;20414;-84
2022/08/09 02:43:31;;;;;;;1999.90;999.90;;;15.00;99.90;;;;;;4930133;29;20473;-85
2022/08/09 02:46:20;;;;;;;1999.90;999.90;;;14.90;99.90;;;;;;4927438;29;20406;-85
2022/08/09 02:48:51;;;;;;;1999.90;999.90;;;14.90;99.90;;;;;;4920687;29;20407;-85
2022/08/09 02:51:22;;;;;;;1999.90;999.90;;;14.90;99.90;;;;;;4935454;29;20392;-85
2022/08/09 02:53:56;;;;;;;1999.90;999.90;;;14.90;99.90;;;;;;4939586;29;20739;-85
2022/08/09 02:56:28;;;;;;;1999.90;999.90;;;14.90;99.90;;;;;;4943649;28;20441;-84
2022/08/09 02:58:57;;;;;;;1999.90;999.90;;;14.90;99.90;;;;;;4935816;28;20416;-84
2022/08/09 03:01:27;;;;;;;1999.90;999.90;;;14.90;99.90;;;;;;4933415;29;20419;-84
2022/08/09 03:04:10;;;;;;;1999.90;999.90;;;14.90;99.90;;;;;;4917323;29;20395;-85
2022/08/09 03:06:47;;;;;;;1999.90;999.90;;;14.90;99.90;;;;;;4919535;29;20435;-84
2022/08/09 03:09:19;;;;;;;1999.90;999.90;;;14.90;99.90;;;;;;4907165;29;20910;-84
2022/08/09 03:11:48;;;;;;;1999.90;999.90;;;14.90;99.90;;;;;;4934326;28;20818;-86
2022/08/09 03:14:35;;;;;;;1999.90;999.90;;;14.90;99.90;;;;;;4939524;28;20502;-85
2022/08/09 03:17:03;;;;;;;1999.90;999.90;;;14.80;99.90;;;;;;4940375;28;20423;-84
2022/08/09 03:19:33;;;;;;;1999.90;999.90;;;14.90;99.90;;;;;;4938205;28;20426;-84
2022/08/09 03:22:22;;;;;;;1999.90;999.90;;;14.80;99.90;;;;;;4939094;28;20471;-85
2022/08/09 03:24:58;;;;;;;1999.90;999.90;;;14.80;99.90;;;;;;4938334;28;20402;-86
2022/08/09 03:27:34;;;;;;;1999.90;999.90;;;14.80;99.90;;;;;;4927854;29;20416;-84
2022/08/09 03:30:13;;;;;;;1999.90;999.90;;;14.80;99.90;;;;;;4925137;29;20490;-84
2022/08/09 03:33:06;;;;;;;1999.90;999.90;;;14.80;99.90;;;;;;4921305;29;20423;-85
2022/08/09 03:35:47;;;;;;;1999.90;999.90;;;14.80;99.90;;;;;;4946363;28;20404;-85
2022/08/09 03:38:36;;;;;;;1999.90;999.90;;;14.80;99.90;;;;;;4928320;29;20904;-85
2022/08/09 03:41:14;;;;;;;1999.90;999.90;;;14.80;99.90;;;;;;4925594;29;20845;-85
2022/08/09 03:43:46;;;;;;;1999.90;999.90;;;14.80;99.90;;;;;;4939902;28;20412;-85
2022/08/09 03:46:34;;;;;;;1999.90;999.90;;;14.80;99.90;;;;;;4930425;28;20503;-85
2022/08/09 03:49:04;;;;;;;1999.90;999.90;;;14.80;99.90;;;;;;4929073;28;20496;-85
2022/08/09 03:51:42;;;;;;;1999.90;999.90;;;14.80;99.90;;;;;;4925632;29;21043;-85
2022/08/09 03:54:29;;;;;;;1999.90;999.90;;;14.80;99.90;;;;;;4927900;29;20888;-85
2022/08/09 03:57:05;;;;;;;1999.90;999.90;;;14.80;99.90;;;;;;4938983;28;20468;-84
2022/08/09 03:59:52;;;;;;;1999.90;999.90;;;14.80;99.90;;;;;;4925047;29;20437;-84
2022/08/09 04:02:29;;;;;;;1999.90;999.90;;;14.90;99.90;;;;;;4923799;29;20957;-85
2022/08/09 04:05:00;;;;;;;1999.90;999.90;;;14.80;99.90;;;;;;4931453;29;20406;-84
2022/08/09 04:07:47;;;;;;;1999.90;999.90;;;14.80;99.90;;;;;;4917211;29;20403;-84
2022/08/09 04:10:24;;;;;;;1999.90;999.90;;;14.80;99.90;;;;;;4927245;29;20449;-85
2022/08/09 04:12:59;;;;;;;1999.90;999.90;;;14.80;99.90;;;;;;4933034;29;20414;-85
2022/08/09 04:15:31;;;;;;;1999.90;999.90;;;14.80;99.90;;;;;;4940836;28;20900;-84
2022/08/09 04:18:19;;;;;;;1999.90;999.90;;;14.80;99.90;;;;;;4926594;29;20424;-84
2022/08/09 04:20:48;;;;;;;1999.90;999.90;;;14.80;99.90;;;;;;4933204;29;20469;-84
2022/08/09 04:23:18;;;;;;;1999.90;999.90;;;14.70;99.90;;;;;;4924451;29;20529;-84
2022/08/09 04:25:52;;;;;;;1999.90;999.90;;;14.70;99.90;;;;;;4933901;29;20428;-85
2022/08/09 04:28:21;;;;;;;1999.90;999.90;;;14.70;99.90;;;;;;4930356;29;20624;-86
2022/08/09 04:31:00;;;;;;;1999.90;999.90;;;14.70;99.90;;;;;;4923971;29;20402;-85
2022/08/09 04:33:39;;;;;;;1999.90;999.90;;;14.70;99.90;;;;;;4940856;29;20415;-84
2022/08/09 04:36:22;;;;;;;1999.90;999.90;;;14.70;99.90;;;;;;4922792;29;20810;-85
2022/08/09 04:38:51;;;;;;;1999.90;999.90;;;14.70;99.90;;;;;;4925991;29;20423;-85
2022/08/09 04:41:20;;;;;;;1999.90;999.90;;;14.70;99.90;;;;;;4924008;29;20422;-85
2022/08/09 04:43:51;;;;;;;1999.90;999.90;;;14.70;99.90;;;;;;4922269;29;20417;-85
2022/08/09 04:46:32;;;;;;;1999.90;999.90;;;14.70;99.90;;;;;;4924860;29;20879;-84
2022/08/09 04:49:20;;;;;;;1999.90;999.90;;;14.70;99.90;;;;;;4926052;29;20489;-86
2022/08/09 04:52:08;;;;;;;1999.90;999.90;;;14.70;99.90;;;;;;4932389;28;20465;-86
2022/08/09 04:54:36;;;;;;;1999.90;999.90;;;14.70;99.90;;;;;;4924685;29;20472;-86
2022/08/09 04:57:03;;;;;;;1999.90;999.90;;;14.80;99.90;;;;;;4939373;28;20412;-85
2022/08/09 04:59:36;;;;;;;1999.90;999.90;;;14.80;99.90;;;;;;4937041;28;20410;-85
2022/08/09 05:02:04;;;;;;;1999.90;999.90;;;14.80;99.90;;;;;;4930096;29;20439;-84
2022/08/09 05:04:32;;;;;;;1999.90;999.90;;;14.80;99.90;;;;;;4929695;29;20418;-85
2022/08/09 05:07:00;;;;;;;1999.90;999.90;;;14.90;99.90;;;;;;4934589;28;20496;-85
2022/08/09 05:09:29;;;;;;;1999.90;999.90;;;14.90;99.90;;;;;;4937598;28;20410;-86
2022/08/09 05:12:09;;;;;;;1976.63;999.90;;;14.90;99.90;;;;;;4932481;29;20492;-85
2022/08/09 05:14:38;;;;;;;1999.90;999.90;;;15.00;99.90;;;;;;4938389;28;20410;-86
2022/08/09 05:17:07;;;;;;;1930.37;999.90;;;15.00;99.90;;;;;;4923947;29;20426;-85
2022/08/09 05:19:55;;;;;;;1575.82;999.90;;;15.00;99.90;;;;;;4943268;28;20458;-87
2022/08/09 05:22:24;;;;;;;1999.90;999.90;;;15.10;99.90;;;;;;4929501;29;20412;-86
2022/08/09 05:25:13;;;;;;;1999.90;999.90;;;15.10;99.90;;;;;;4922050;29;20411;-86
2022/08/09 05:27:41;;;;;;;1938.68;999.90;;;15.20;99.90;;;;;;4939503;29;20804;-85
2022/08/09 05:30:16;;;;;;;1899.18;999.90;;;15.20;99.90;;;;;;4942385;29;20397;-85
2022/08/09 05:32:46;;;;;;;1851.95;999.90;;;15.20;99.90;;;;;;4928215;29;20911;-86
2022/08/09 05:35:20;;;;;;;1999.90;999.90;;;15.30;99.90;;;;;;4937291;28;20413;-85
2022/08/09 05:37:49;;;;;;;1829.65;999.90;;;15.30;99.90;;;;;;4924033;29;20410;-86
2022/08/09 05:40:17;;;;;;;1999.90;999.90;;;15.30;99.90;;;;;;4921668;29;20412;-85
2022/08/09 05:42:45;;;;;;;1646.90;999.90;;;15.40;99.90;;;;;;4936067;28;20896;-85
2022/08/09 05:45:13;;;;;;;1634.47;999.90;;;15.40;99.90;;;;;;4925660;29;20508;-85
2022/08/09 05:47:42;;;;;;;1624.45;999.90;;;15.40;99.90;;;;;;4939623;28;20410;-86
2022/08/09 05:50:22;;;;;;;1642.30;999.90;;;15.50;99.90;;;;;;4938326;29;20395;-86
2022/08/09 05:53:10;;;;;;;1735.45;999.90;;;15.50;99.90;;;;;;4922207;29;20508;-85
2022/08/09 05:55:58;;;;;;;1574.60;999.90;;;15.60;99.90;;;;;;4937034;28;20453;-85
2022/08/09 05:58:27;;;;;;;1569.20;999.90;;;15.60;99.90;;;;;;4932188;29;20408;-86
2022/08/09 06:00:55;;;;;;;1364.28;999.90;;;15.60;99.90;;;;;;4929249;29;20875;-86
2022/08/09 06:03:24;;;;;;;1819.53;999.90;;;15.50;99.90;;;;;;4937173;28;20745;-86
2022/08/09 06:06:10;;;;;;;1578.80;999.90;;;15.60;99.90;;;;;;4931860;28;20415;-85
2022/08/09 06:08:37;;;;;;;1783.30;999.90;;;15.60;99.90;;;;;;4937578;29;20396;-85
2022/08/09 06:11:06;;;;;;;1640.22;999.90;;;15.60;99.90;;;;;;4923154;29;20437;-86
2022/08/09 06:13:44;;;;;;;1819.68;999.90;;;15.60;99.90;;;;;;4937994;28;20775;-85
2022/08/09 06:16:14;;;;;;;1561.97;999.90;;;15.60;99.90;;;;;;4932008;29;20402;-85
2022/08/09 06:18:43;;;;;;;1655.95;999.90;;;15.70;99.90;;;;;;4938158;28;20413;-85
2022/08/09 06:21:10;;;;;;;1999.90;999.90;;;15.70;99.90;;;;;;4932576;29;20470;-86
2022/08/09 06:23:42;;;;;;;1999.90;999.90;;;15.80;99.90;;;;;;4943520;28;20410;-86
2022/08/09 06:26:28;;;;;;;1999.90;999.90;;;15.70;99.90;;;;;;4927658;29;20410;-86
2022/08/09 06:28:57;;;;;;;1807.53;999.90;;;15.80;99.90;;;;;;4935632;29;20525;-85
2022/08/09 06:31:33;;;;;;;1801.18;999.90;;;15.80;99.90;;;;;;4919761;28;20505;-85
2022/08/09 06:34:21;;;;;;;1749.95;999.90;;;15.80;99.90;;;;;;4928687;29;20458;-86
2022/08/09 06:36:56;;;;;;;1433.50;999.90;;;15.80;99.90;;;;;;4928449;29;20506;-85
2022/08/09 06:39:30;;;;;;;1671.28;999.90;;;15.80;99.90;;;;;;4928517;29;20504;-86
2022/08/09 06:42:19;;;;;;;1950.00;999.90;;;15.90;99.90;;;;;;4921902;29;20470;-85
2022/08/09 06:44:51;;;;;;;1869.25;999.90;;;15.90;99.90;;;;;;4932718;29;20616;-86
2022/08/09 06:47:21;;;;;;;1999.90;999.90;;;16.00;99.90;;;;;;4933416;29;20430;-86
2022/08/09 06:49:52;;;;;;;1843.00;999.90;;;16.00;99.90;;;;;;4940756;29;20390;-86
2022/08/09 06:52:44;;;;;;;1999.90;999.90;;;16.00;99.90;;;;;;4930645;29;20430;-87
2022/08/09 06:55:15;;;;;;;1640.32;999.90;;;16.00;99.90;;;;;;4925906;29;20411;-86
2022/08/09 06:57:43;;;;;;;1520.65;999.90;;;16.00;99.90;;;;;;4925843;29;20414;-86
2022/08/09 07:00:34;;;;;;;1580.55;999.90;;;16.00;99.90;;;;;;4928385;29;20410;-86
2022/08/09 07:03:23;;;;;;;1720.82;999.90;;;16.00;99.90;;;;;;4928205;29;20402;-86
2022/08/09 07:05:55;;;;;;;1698.68;999.90;;;16.10;99.90;;;;;;4932336;29;20471;-86
2022/08/09 07:08:32;;;;;;;1629.82;999.90;;;16.10;99.90;;;;;;4926653;29;20403;-86
2022/08/09 07:11:01;;;;;;;1615.47;999.90;;;16.10;99.90;;;;;;4925333;29;20401;-86
2022/08/09 07:13:30;;;;;;;1663.55;999.90;;;16.20;99.90;;;;;;4932373;29;20462;-86
2022/08/09 07:16:17;;;;;;;1848.88;999.90;;;16.20;99.90;;;;;;4937280;29;20397;-86
2022/08/09 07:19:05;;;;;;;1753.15;999.90;;;16.20;99.90;;;;;;4926287;29;20485;-87
2022/08/09 07:21:34;;;;;;;1655.63;999.90;;;16.20;99.90;;;;;;4947781;28;20410;-86
2022/08/09 07:24:03;;;;;;;1701.07;999.90;;;16.30;99.90;;;;;;4925408;29;20746;-86
2022/08/09 07:26:31;;;;;;;1999.90;999.90;;;16.30;99.90;;;;;;4942565;28;20436;-87
2022/08/09 07:29:01;;;;;;;1999.90;999.90;;;16.40;99.90;;;;;;4919560;29;20417;-86
2022/08/09 07:31:39;;;;;;;1552.55;999.90;;;16.40;99.90;;;;;;4926553;29;20899;-85
2022/08/09 07:34:15;;;;;;;1456.65;999.90;;;16.40;99.90;;;;;;4927601;29;20416;-86
2022/08/09 07:36:50;;;;;;;1998.85;999.90;;;16.40;99.90;;;;;;4926927;29;20414;-86
2022/08/09 07:39:20;;;;;;;1545.75;999.90;;;16.40;99.90;;;;;;4939484;29;20416;-85
2022/08/09 07:42:08;;;;;;;1885.40;999.90;;;16.50;99.90;;;;;;4939952;29;20409;-86
2022/08/09 07:44:35;;;;;;;1623.47;999.90;;;16.50;99.90;;;;;;4931192;29;20396;-86
2022/08/09 07:47:21;;;;;;;1468.95;999.90;;;16.60;99.90;;;;;;4920680;29;20491;-86
2022/08/09 07:49:50;;;;;;;1444.95;999.90;;;16.70;99.90;;;;;;4939128;29;20490;-87
2022/08/09 07:52:32;;;;;;;1684.13;999.90;;;16.80;99.90;;;;;;4931063;29;20751;-85
2022/08/09 07:55:02;;;;;;;1606.68;999.90;;;16.80;99.90;;;;;;4927219;29;20413;-86
2022/08/09 07:57:36;;;;;;;1677.72;999.90;;;16.80;99.90;;;;;;4924611;29;20396;-86
2022/08/09 08:00:17;;;;;;;1572.50;999.90;;;16.80;99.90;;;;;;4926730;29;20402;-86
2022/08/09 08:03:04;;;;;;;1624.73;999.90;;;16.80;99.90;;;;;;4936113;29;20856;-86
2022/08/09 08:05:36;;;;;;;1511.43;999.90;;;16.90;99.90;;;;;;4930662;29;20398;-86
2022/08/09 08:08:24;;;;;;;1566.47;999.90;;;16.90;99.90;;;;;;4924682;29;20407;-86
2022/08/09 08:11:12;;;;;;;1522.38;999.90;;;16.90;99.90;;;;;;4925372;29;20395;-85
2022/08/09 08:14:00;;;;;;;1602.05;999.90;;;17.10;99.90;;;;;;4933481;29;20414;-86
2022/08/09 08:16:29;;;;;;;1527.97;999.90;;;17.10;99.90;;;;;;4925923;29;20399;-87
2022/08/09 08:18:59;;;;;;;1548.22;999.90;;;17.00;99.90;;;;;;4926225;29;20412;-84
2022/08/09 08:21:30;;;;;;;1393.28;999.90;;;17.10;99.90;;;;;;4938762;29;20405;-86
2022/08/09 08:23:58;;;;;;;1389.97;999.90;;;17.20;99.90;;;;;;4942082;28;20799;-86
2022/08/09 08:26:37;;;;;;;1449.93;999.90;;;17.20;99.90;;;;;;4941324;28;20521;-86
2022/08/09 08:29:26;;;;;;;1643.30;999.90;;;17.20;99.90;;;;;;4926678;29;20414;-86
2022/08/09 08:32:06;;;;;;;1623.32;999.90;;;17.20;99.90;;;;;;4933793;28;20451;-86
2022/08/09 08:34:38;;;;;;;1576.15;999.90;;;17.30;99.90;;;;;;4925082;29;20514;-86
2022/08/09 08:37:07;;;;;;;1468.85;999.90;;;17.40;99.90;;;;;;4932569;28;20401;-86
2022/08/09 08:39:45;;;;;;;1568.13;999.90;;;17.40;99.90;;;;;;4925621;29;20414;-86
2022/08/09 08:42:13;;;;;;;1978.78;999.90;;;17.50;99.90;;;;;;4938744;28;20412;-86
2022/08/09 08:44:43;;;;;;;1306.18;999.90;;;17.50;99.90;;;;;;4920097;29;20944;-86
2022/08/09 08:47:14;;;;;;;1395.85;999.90;;;17.50;99.90;;;;;;4924921;29;20399;-86
2022/08/09 08:49:42;;;;;;;1401.47;999.90;;;17.50;99.90;;;;;;4930885;29;20418;-86
2022/08/09 08:52:17;;;;;;;1468.43;999.90;;;17.60;99.90;;;;;;4932611;28;20437;-86
2022/08/09 08:55:06;;;;;;;1452.05;999.90;;;17.60;99.90;;;;;;4926190;29;20414;-86
2022/08/09 08:57:34;;;;;;;1999.90;999.90;;;17.60;99.90;;;;;;4929911;29;20415;-85
2022/08/09 09:00:07;;;;;;;1597.10;999.90;;;17.40;99.90;;;;;;4933142;29;20413;-86
2022/08/09 09:02:50;;;;;;;1450.10;999.90;;;17.40;99.90;;;;;;4922911;29;20460;-86
2022/08/09 09:05:23;;;;;;;1588.28;999.90;;;17.50;99.90;;;;;;4917813;29;20687;-86
2022/08/09 09:08:13;;;;;;;1315.30;999.90;;;17.50;99.90;;;;;;4930053;29;20421;-87
2022/08/09 09:11:02;;;;;;;1402.23;999.90;;;17.60;99.90;;;;;;4934081;29;20420;-85
2022/08/09 09:13:37;;;;;;;1505.45;999.90;;;17.60;99.90;;;;;;4938541;28;20414;-86
2022/08/09 09:16:31;;;;;;;1569.50;999.90;;;17.60;99.90;;;;;;4924012;29;20504;-86
2022/08/09 09:19:04;;;;;;;1785.63;999.90;;;17.70;99.90;;;;;;4923833;29;20414;-86
2022/08/09 09:22:13;;;;;;;1285.68;999.90;;;17.70;99.90;;;;;;4914835;29;20407;-85
2022/08/09 09:24:45;;;;;;;1332.00;999.90;;;17.90;99.90;;;;;;4938103;29;20509;-86
2022/08/09 09:27:16;;;;;;;1528.00;999.90;;;18.00;99.90;;;;;;4928875;29;20405;-86
2022/08/09 09:30:12;;;;;;;1392.93;999.90;;;18.30;99.90;;;;;;4939136;29;20406;-85
2022/08/09 09:33:02;;;;;;;1399.43;999.90;;;18.50;99.90;;;;;;4932556;29;20410;-86
2022/08/09 09:36:11;;;;;;;1520.97;999.90;;;18.30;99.90;;;;;;4938435;28;20417;-85
2022/08/09 09:38:49;;;;;;;1537.90;999.90;;;18.20;99.90;;;;;;4922957;29;20469;-85
2022/08/09 09:41:29;;;;;;;1526.72;999.90;;;18.20;99.90;;;;;;4932219;29;20769;-86
2022/08/09 09:44:06;;;;;;;1542.00;999.90;;;18.20;99.90;;;;;;4940430;28;20436;-85
2022/08/09 09:46:42;;;;;;;1511.32;999.90;;;18.20;99.90;;;;;;4924877;29;20516;-86
2022/08/09 09:49:20;;;;;;;1769.63;999.90;;;18.20;99.90;;;;;;4938117;28;20441;-86
2022/08/09 09:52:09;;;;;;;1387.80;999.90;;;18.30;99.90;;;;;;4917284;29;20402;-86
2022/08/09 09:55:06;;;;;;;1733.72;999.90;;;18.30;99.90;;;;;;4925362;29;20910;-87
2022/08/09 09:58:03;;;;;;;1383.90;999.90;;;18.20;99.90;;;;;;4931678;29;20425;-86
2022/08/09 10:00:51;;;;;;;1691.22;999.90;;;18.10;99.90;;;;;;4933146;29;20546;-85
2022/08/09 10:03:45;;;;;;;1559.00;999.90;;;18.20;99.90;;;;;;4944648;28;20887;-86
2022/08/09 10:06:23;;;;;;;1816.63;999.90;;;18.20;99.90;;;;;;4920824;29;20669;-86
2022/08/09 10:09:00;;;;;;;1390.43;999.90;;;18.10;99.90;;;;;;4932840;29;20411;-86
2022/08/09 10:11:30;;;;;;;1636.07;999.90;;;18.10;99.90;;;;;;4921231;29;20411;-86
2022/08/09 10:14:29;;;;;;;1553.28;999.90;;;18.10;99.90;;;;;;4941605;28;20413;-86
2022/08/09 10:17:10;;;;;;;1663.05;999.90;;;18.00;99.90;;;;;;4943552;28;20416;-85
2022/08/09 10:20:05;;;;;;;1365.75;999.90;;;18.10;99.90;;;;;;4934233;29;20434;-85
2022/08/09 10:22:41;;;;;;;1418.68;999.90;;;18.10;99.90;;;;;;4926992;29;20428;-86
2022/08/09 10:25:11;;;;;;;1455.55;999.90;;;18.10;99.90;;;;;;4927120;29;20416;-86
2022/08/09 10:27:43;;;;;;;1572.40;999.90;;;18.00;99.90;;;;;;4936747;28;20762;-86
2022/08/09 10:30:26;;;;;;;1690.28;999.90;;;18.00;99.90;;;;;;4926154;29;20424;-85
2022/08/09 10:33:15;;;;;;;1544.97;999.90;;;18.00;99.90;;;;;;4934721;29;20444;-86
2022/08/09 10:36:05;;;;;;;1529.03;999.90;;;18.10;99.90;;;;;;4943748;28;20923;-86
2022/08/09 10:38:42;;;;;;;1647.72;999.90;;;18.00;99.90;;;;;;4928276;29;20418;-86
2022/08/09 10:41:26;;;;;;;1876.53;999.90;;;18.00;99.90;;;;;;4931874;29;20412;-86
2022/08/09 10:43:55;;;;;;;1551.97;999.90;;;18.10;99.90;;;;;;4941340;28;20406;-86
2022/08/09 10:47:01;;;;;;;1560.65;999.90;;;18.00;99.90;;;;;;4925462;29;20410;-86
2022/08/09 10:49:56;;;;;;;1600.93;999.90;;;18.00;99.90;;;;;;4931101;28;20406;-85
2022/08/09 10:52:33;;;;;;;1600.30;999.90;;;18.10;99.90;;;;;;4935893;28;20407;-86
2022/08/09 10:55:23;;;;;;;1407.47;999.90;;;18.20;99.90;;;;;;4935656;28;20472;-86
2022/08/09 10:57:52;;;;;;;1680.25;999.90;;;18.30;99.90;;;;;;4927293;29;20415;-85
2022/08/09 11:00:42;;;;;;;1477.68;999.90;;;18.60;99.90;;;;;;4932540;29;20494;-85
2022/08/09 11:03:30;;;;;;;1345.45;999.90;;;18.80;99.90;;;;;;4942605;29;20411;-85
2022/08/09 11:06:23;;;;;;;1633.75;999.90;;;18.70;99.90;;;;;;4937605;29;20781;-86
2022/08/09 11:08:51;;;;;;;1376.47;999.90;;;18.60;99.90;;;;;;4920881;29;20973;-85
2022/08/09 11:11:22;;;;;;;1826.55;999.90;;;18.50;99.90;;;;;;4934617;29;20461;-86
2022/08/09 11:14:28;;;;;;;1877.23;999.90;;;18.50;99.90;;;;;;4934215;28;20898;-86
2022/08/09 11:16:58;;;;;;;1999.90;999.90;;;18.50;99.90;;;;;;4928126;29;20418;-86
2022/08/09 11:19:58;;;;;;;1782.38;999.90;;;18.50;99.90;;;;;;4919621;29;20411;-86
2022/08/09 11:22:50;;;;;;;1645.13;999.90;;;18.60;99.90;;;;;;4920147;29;20413;-85
2022/08/09 11:25:28;;;;;;;1539.28;999.90;;;18.70;99.90;;;;;;4932937;29;20789;-85
2022/08/09 11:28:31;;;;;;;1525.80;999.90;;;18.70;99.90;;;;;;4924041;29;20920;-86
2022/08/09 11:31:43;;;;;;;1523.03;999.90;;;18.90;99.90;;;;;;4925353;29;20454;-85
2022/08/09 11:34:40;;;;;;;1352.63;999.90;;;19.00;99.90;;;;;;4943938;28;20418;-85
2022/08/09 11:37:24;;;;;;;1420.32;999.90;;;19.00;99.90;;;;;;4925048;29;20390;-86
2022/08/09 11:40:05;;;;;;;1501.97;999.90;;;18.90;99.90;;;;;;4925047;29;20461;-86
2022/08/09 11:43:00;;;;;;;1479.87;999.90;;;19.00;99.90;;;;;;4939567;29;20939;-86
2022/08/09 11:45:39;;;;;;;1616.35;999.90;;;19.00;99.90;;;;;;4922269;29;20459;-86
2022/08/09 11:48:19;;;;;;;1236.13;999.90;;;19.30;99.90;;;;;;4935969;29;20629;-86
2022/08/09 11:50:56;;;;;;;1437.47;999.90;;;19.70;99.90;;;;;;4923149;29;20402;-85
2022/08/09 11:53:44;;;;;;;1360.63;999.90;;;19.60;99.90;;;;;;4940638;28;20423;-86
2022/08/09 11:56:30;;;;;;;1187.50;999.90;;;19.40;99.90;;;;;;4918304;29;20416;-85
2022/08/09 11:59:25;;;;;;;1671.90;999.90;;;19.40;99.90;;;;;;4918698;29;20891;-86
2022/08/09 12:02:00;;;;;;;1552.38;999.90;;;19.40;99.90;;;;;;4923723;29;20412;-86
2022/08/09 12:04:51;;;;;;;1463.75;999.90;;;19.60;99.90;;;;;;4925487;29;20393;-86
2022/08/09 12:07:29;;;;;;;1202.03;999.90;;;19.60;99.90;;;;;;4933922;28;20932;-86
2022/08/09 12:10:11;;;;;;;1463.10;999.90;;;19.50;99.90;;;;;;4906220;29;20418;-86
2022/08/09 12:12:59;;;;;;;1993.97;999.90;;;19.50;99.90;;;;;;4914760;29;20427;-85
2022/08/09 12:15:47;;;;;;;1613.35;999.90;;;19.50;99.90;;;;;;4934359;28;20480;-86
2022/08/09 12:18:19;;;;;;;1455.27;999.90;;;19.50;99.90;;;;;;4920645;29;20423;-85
2022/08/09 12:20:58;;;;;;;1312.50;999.90;;;19.40;99.90;;;;;;4940949;29;20414;-86
2022/08/09 12:23:27;;;;;;;1309.85;999.90;;;19.40;99.90;;;;;;4937427;28;20410;-85
2022/08/09 12:26:14;;;;;;;1270.18;999.90;;;19.40;99.90;;;;;;4930264;29;20408;-85
2022/08/09 12:28:54;;;;;;;1257.35;999.90;;;19.50;99.90;;;;;;4921819;29;20406;-84
2022/08/09 12:31:43;;;;;;;1355.05;999.90;;;19.50;99.90;;;;;;4928579;29;20406;-85
2022/08/09 12:34:40;;;;;;;1414.28;999.90;;;19.70;99.90;;;;;;4932718;29;20481;-84
2022/08/09 12:37:12;;;;;;;1472.73;999.90;;;19.80;99.90;;;;;;4932628;28;20425;-85
2022/08/09 12:40:04;;;;;;;1657.82;999.90;;;19.90;99.90;;;;;;4926727;29;20469;-86
2022/08/09 12:42:32;;;;;;;1294.35;999.90;;;19.90;99.90;;;;;;4943289;28;20416;-86
2022/08/09 12:45:03;;;;;;;1999.90;999.90;;;19.80;99.90;;;;;;4924295;29;20402;-86
2022/08/09 12:47:51;;;;;;;1999.90;999.90;;;19.70;99.90;;;;;;4936362;28;20445;-86
2022/08/09 12:50:19;;;;;;;1999.90;999.90;;;19.60;99.90;;;;;;4936064;28;20419;-86
2022/08/09 12:52:51;;;;;;;1817.28;999.90;;;19.50;99.90;;;;;;4936693;28;20835;-86
2022/08/09 12:55:39;;;;;;;1762.15;999.90;;;19.40;99.90;;;;;;4940390;28;20824;-87